<?xml version="1.0" encoding="UTF-8" standalone="no" ?><gpx xmlns="http://www.topografix.com/GPX/1/1" xmlns:gpxx="http://www.garmin.com/xmlschemas/GpxExtensions/v3" xmlns:wptx1="http://www.garmin.com/xmlschemas/WaypointExtension/v1" xmlns:gpxtpx="http://www.garmin.com/xmlschemas/TrackPointExtension/v1" creator="Dakota 20" version="1.1" xmlns:xsi="http://www.w3.org/2001/XMLSchema-instance" xsi:schemaLocation="http://www.topografix.com/GPX/1/1 http://www.topografix.com/GPX/1/1/gpx.xsd http://www.garmin.com/xmlschemas/GpxExtensions/v3 http://www8.garmin.com/xmlschemas/GpxExtensionsv3.xsd http://www.garmin.com/xmlschemas/WaypointExtension/v1 http://www8.garmin.com/xmlschemas/WaypointExtensionv1.xsd http://www.garmin.com/xmlschemas/TrackPointExtension/v1 http://www.garmin.com/xmlschemas/TrackPointExtensionv1.xsd"><metadata><link href="http://www.garmin.com"><text>Garmin International</text></link><time>2013-12-11T21:33:44Z</time></metadata><trk><name>Current Track: 11 DEC 2013 10:02</name><extensions><gpxx:TrackExtension><gpxx:DisplayColor>Cyan</gpxx:DisplayColor></gpxx:TrackExtension></extensions><trkseg><trkpt lat="51.8280890118" lon="-2.1094635129"><ele>287.09</ele><time>2013-12-11T10:02:07Z</time></trkpt><trkpt lat="51.8280895986" lon="-2.1094633453"><ele>289.49</ele><time>2013-12-11T10:02:09Z</time></trkpt><trkpt lat="51.8280906882" lon="-2.1094652731"><ele>287.09</ele><time>2013-12-11T10:02:13Z</time></trkpt><trkpt lat="51.8280942924" lon="-2.1094666980"><ele>288.53</ele><time>2013-12-11T10:02:15Z</time></trkpt><trkpt lat="51.8280955497" lon="-2.1094670333"><ele>288.53</ele><time>2013-12-11T10:02:17Z</time></trkpt><trkpt lat="51.8280821387" lon="-2.1094914246"><ele>288.53</ele><time>2013-12-11T10:02:20Z</time></trkpt><trkpt lat="51.8280243874" lon="-2.1096189972"><ele>288.05</ele><time>2013-12-11T10:02:28Z</time></trkpt><trkpt lat="51.8279923685" lon="-2.1098220907"><ele>288.53</ele><time>2013-12-11T10:02:43Z</time></trkpt><trkpt lat="51.8280087970" lon="-2.1099287923"><ele>288.53</ele><time>2013-12-11T10:02:58Z</time></trkpt><trkpt lat="51.8280361220" lon="-2.1102092508"><ele>287.57</ele><time>2013-12-11T10:03:15Z</time></trkpt><trkpt lat="51.8280184362" lon="-2.1104604565"><ele>286.13</ele><time>2013-12-11T10:03:32Z</time></trkpt><trkpt lat="51.8280204479" lon="-2.1105853468"><ele>286.13</ele><time>2013-12-11T10:03:39Z</time></trkpt><trkpt lat="51.8279994931" lon="-2.1107138414"><ele>284.69</ele><time>2013-12-11T10:03:52Z</time></trkpt><trkpt lat="51.8281226233" lon="-2.1106819063"><ele>284.21</ele><time>2013-12-11T10:04:06Z</time></trkpt><trkpt lat="51.8282049336" lon="-2.1107575111"><ele>281.32</ele><time>2013-12-11T10:04:19Z</time></trkpt><trkpt lat="51.8282957934" lon="-2.1109311003"><ele>277.96</ele><time>2013-12-11T10:04:33Z</time></trkpt><trkpt lat="51.8283813726" lon="-2.1110049449"><ele>274.59</ele><time>2013-12-11T10:04:47Z</time></trkpt><trkpt lat="51.8284781836" lon="-2.1110355388"><ele>273.63</ele><time>2013-12-11T10:05:03Z</time></trkpt><trkpt lat="51.8285410479" lon="-2.1111484431"><ele>270.27</ele><time>2013-12-11T10:05:22Z</time></trkpt><trkpt lat="51.8287021481" lon="-2.1111471858"><ele>268.35</ele><time>2013-12-11T10:05:40Z</time></trkpt><trkpt lat="51.8289199937" lon="-2.1111567412"><ele>265.46</ele><time>2013-12-11T10:05:58Z</time></trkpt><trkpt lat="51.8291032221" lon="-2.1111989859"><ele>263.06</ele><time>2013-12-11T10:06:14Z</time></trkpt><trkpt lat="51.8291746359" lon="-2.1111925319"><ele>262.10</ele><time>2013-12-11T10:06:20Z</time></trkpt><trkpt lat="51.8292971794" lon="-2.1111980639"><ele>260.65</ele><time>2013-12-11T10:06:32Z</time></trkpt><trkpt lat="51.8294649851" lon="-2.1111424919"><ele>258.73</ele><time>2013-12-11T10:06:49Z</time></trkpt><trkpt lat="51.8295484688" lon="-2.1110372990"><ele>260.65</ele><time>2013-12-11T10:07:07Z</time></trkpt><trkpt lat="51.8295987602" lon="-2.1109691542"><ele>264.50</ele><time>2013-12-11T10:07:25Z</time></trkpt><trkpt lat="51.8297090661" lon="-2.1108756121"><ele>265.94</ele><time>2013-12-11T10:07:47Z</time></trkpt><trkpt lat="51.8299509678" lon="-2.1108135860"><ele>266.90</ele><time>2013-12-11T10:08:05Z</time></trkpt><trkpt lat="51.8300341163" lon="-2.1107911225"><ele>267.38</ele><time>2013-12-11T10:08:15Z</time></trkpt><trkpt lat="51.8301570788" lon="-2.1107848361"><ele>266.90</ele><time>2013-12-11T10:08:24Z</time></trkpt><trkpt lat="51.8304141518" lon="-2.1106869355"><ele>267.38</ele><time>2013-12-11T10:08:42Z</time></trkpt><trkpt lat="51.8305921834" lon="-2.1106304415"><ele>268.35</ele><time>2013-12-11T10:08:58Z</time></trkpt><trkpt lat="51.8306622561" lon="-2.1106187068"><ele>269.31</ele><time>2013-12-11T10:09:15Z</time></trkpt><trkpt lat="51.8308732286" lon="-2.1105610393"><ele>270.75</ele><time>2013-12-11T10:09:34Z</time></trkpt><trkpt lat="51.8310236000" lon="-2.1105867717"><ele>270.27</ele><time>2013-12-11T10:09:49Z</time></trkpt><trkpt lat="51.8311764859" lon="-2.1106280107"><ele>269.79</ele><time>2013-12-11T10:10:06Z</time></trkpt><trkpt lat="51.8312658370" lon="-2.1106570959"><ele>268.83</ele><time>2013-12-11T10:10:20Z</time></trkpt><trkpt lat="51.8314134423" lon="-2.1106630471"><ele>269.79</ele><time>2013-12-11T10:10:38Z</time></trkpt><trkpt lat="51.8315232452" lon="-2.1106249094"><ele>271.23</ele><time>2013-12-11T10:10:54Z</time></trkpt><trkpt lat="51.8316405918" lon="-2.1105245780"><ele>272.67</ele><time>2013-12-11T10:11:12Z</time></trkpt><trkpt lat="51.8317800667" lon="-2.1104963310"><ele>273.63</ele><time>2013-12-11T10:11:26Z</time></trkpt><trkpt lat="51.8319648877" lon="-2.1105262544"><ele>273.63</ele><time>2013-12-11T10:11:44Z</time></trkpt><trkpt lat="51.8322278280" lon="-2.1105249133"><ele>274.11</ele><time>2013-12-11T10:12:03Z</time></trkpt><trkpt lat="51.8324475177" lon="-2.1106456127"><ele>273.15</ele><time>2013-12-11T10:12:22Z</time></trkpt><trkpt lat="51.8326044269" lon="-2.1107749455"><ele>270.75</ele><time>2013-12-11T10:12:42Z</time></trkpt><trkpt lat="51.8327303231" lon="-2.1109897736"><ele>268.35</ele><time>2013-12-11T10:13:00Z</time></trkpt><trkpt lat="51.8328676187" lon="-2.1111177653"><ele>267.86</ele><time>2013-12-11T10:13:16Z</time></trkpt><trkpt lat="51.8330112845" lon="-2.1112137381"><ele>267.38</ele><time>2013-12-11T10:13:32Z</time></trkpt><trkpt lat="51.8332137074" lon="-2.1113698930"><ele>267.38</ele><time>2013-12-11T10:13:49Z</time></trkpt><trkpt lat="51.8333391845" lon="-2.1115380339"><ele>267.38</ele><time>2013-12-11T10:14:08Z</time></trkpt><trkpt lat="51.8335323036" lon="-2.1115847211"><ele>267.86</ele><time>2013-12-11T10:14:26Z</time></trkpt><trkpt lat="51.8337012827" lon="-2.1117328294"><ele>268.83</ele><time>2013-12-11T10:14:47Z</time></trkpt><trkpt lat="51.8337873649" lon="-2.1118422970"><ele>267.38</ele><time>2013-12-11T10:15:01Z</time></trkpt><trkpt lat="51.8339172006" lon="-2.1121591330"><ele>265.94</ele><time>2013-12-11T10:15:19Z</time></trkpt><trkpt lat="51.8340254948" lon="-2.1123457141"><ele>264.50</ele><time>2013-12-11T10:15:35Z</time></trkpt><trkpt lat="51.8341468647" lon="-2.1126063075"><ele>264.50</ele><time>2013-12-11T10:15:51Z</time></trkpt><trkpt lat="51.8342281692" lon="-2.1127700899"><ele>264.02</ele><time>2013-12-11T10:16:06Z</time></trkpt><trkpt lat="51.8343346193" lon="-2.1128068026"><ele>263.54</ele><time>2013-12-11T10:16:23Z</time></trkpt><trkpt lat="51.8343581725" lon="-2.1128315292"><ele>264.02</ele><time>2013-12-11T10:16:52Z</time></trkpt><trkpt lat="51.8343612738" lon="-2.1128182020"><ele>264.02</ele><time>2013-12-11T10:17:00Z</time></trkpt><trkpt lat="51.8343103118" lon="-2.1125822514"><ele>263.54</ele><time>2013-12-11T10:17:16Z</time></trkpt><trkpt lat="51.8343564961" lon="-2.1123812534"><ele>264.02</ele><time>2013-12-11T10:17:30Z</time></trkpt><trkpt lat="51.8343307637" lon="-2.1121129487"><ele>264.02</ele><time>2013-12-11T10:17:48Z</time></trkpt><trkpt lat="51.8343257345" lon="-2.1118439734"><ele>264.50</ele><time>2013-12-11T10:18:06Z</time></trkpt><trkpt lat="51.8343253992" lon="-2.1118303109"><ele>264.02</ele><time>2013-12-11T10:18:27Z</time></trkpt><trkpt lat="51.8341979105" lon="-2.1116290614"><ele>265.46</ele><time>2013-12-11T10:18:45Z</time></trkpt><trkpt lat="51.8341141753" lon="-2.1113202721"><ele>266.42</ele><time>2013-12-11T10:19:02Z</time></trkpt><trkpt lat="51.8340028636" lon="-2.1110776160"><ele>266.42</ele><time>2013-12-11T10:19:17Z</time></trkpt><trkpt lat="51.8338876124" lon="-2.1107686590"><ele>266.42</ele><time>2013-12-11T10:19:34Z</time></trkpt><trkpt lat="51.8337932322" lon="-2.1104636416"><ele>267.86</ele><time>2013-12-11T10:19:51Z</time></trkpt><trkpt lat="51.8337224051" lon="-2.1101330593"><ele>267.86</ele><time>2013-12-11T10:20:07Z</time></trkpt><trkpt lat="51.8337322958" lon="-2.1099411976"><ele>270.75</ele><time>2013-12-11T10:20:22Z</time></trkpt><trkpt lat="51.8337518256" lon="-2.1099165548"><ele>270.27</ele><time>2013-12-11T10:20:42Z</time></trkpt><trkpt lat="51.8337638956" lon="-2.1099013835"><ele>269.79</ele><time>2013-12-11T10:21:03Z</time></trkpt><trkpt lat="51.8337792344" lon="-2.1098627429"><ele>269.31</ele><time>2013-12-11T10:21:19Z</time></trkpt><trkpt lat="51.8337807432" lon="-2.1097048279"><ele>269.31</ele><time>2013-12-11T10:21:29Z</time></trkpt><trkpt lat="51.8338185456" lon="-2.1094117127"><ele>269.79</ele><time>2013-12-11T10:21:47Z</time></trkpt><trkpt lat="51.8338339683" lon="-2.1091510355"><ele>268.83</ele><time>2013-12-11T10:22:03Z</time></trkpt><trkpt lat="51.8338348903" lon="-2.1089397278"><ele>268.35</ele><time>2013-12-11T10:22:17Z</time></trkpt><trkpt lat="51.8338241614" lon="-2.1088000853"><ele>268.35</ele><time>2013-12-11T10:22:31Z</time></trkpt><trkpt lat="51.8338230718" lon="-2.1088032704"><ele>268.35</ele><time>2013-12-11T10:22:59Z</time></trkpt><trkpt lat="51.8338224851" lon="-2.1087825671"><ele>268.35</ele><time>2013-12-11T10:23:16Z</time></trkpt><trkpt lat="51.8338234909" lon="-2.1087606903"><ele>268.35</ele><time>2013-12-11T10:23:38Z</time></trkpt><trkpt lat="51.8338263407" lon="-2.1087507997"><ele>267.86</ele><time>2013-12-11T10:24:04Z</time></trkpt><trkpt lat="51.8338270113" lon="-2.1086047031"><ele>267.38</ele><time>2013-12-11T10:24:21Z</time></trkpt><trkpt lat="51.8338263407" lon="-2.1085658949"><ele>267.38</ele><time>2013-12-11T10:24:30Z</time></trkpt><trkpt lat="51.8338036258" lon="-2.1081835125"><ele>266.90</ele><time>2013-12-11T10:24:50Z</time></trkpt><trkpt lat="51.8338501453" lon="-2.1078787465"><ele>268.35</ele><time>2013-12-11T10:25:09Z</time></trkpt><trkpt lat="51.8339306116" lon="-2.1076083463"><ele>269.31</ele><time>2013-12-11T10:25:25Z</time></trkpt><trkpt lat="51.8340560049" lon="-2.1072964557"><ele>270.27</ele><time>2013-12-11T10:25:43Z</time></trkpt><trkpt lat="51.8341675680" lon="-2.1069757640"><ele>269.79</ele><time>2013-12-11T10:25:59Z</time></trkpt><trkpt lat="51.8343067914" lon="-2.1066339500"><ele>271.23</ele><time>2013-12-11T10:26:16Z</time></trkpt><trkpt lat="51.8343471922" lon="-2.1065973211"><ele>271.23</ele><time>2013-12-11T10:26:28Z</time></trkpt><trkpt lat="51.8343577534" lon="-2.1065589320"><ele>271.71</ele><time>2013-12-11T10:26:31Z</time></trkpt><trkpt lat="51.8344499543" lon="-2.1063009370"><ele>271.23</ele><time>2013-12-11T10:26:45Z</time></trkpt><trkpt lat="51.8344610184" lon="-2.1062645596"><ele>270.75</ele><time>2013-12-11T10:26:47Z</time></trkpt><trkpt lat="51.8345237151" lon="-2.1061063092"><ele>271.71</ele><time>2013-12-11T10:26:55Z</time></trkpt><trkpt lat="51.8346128985" lon="-2.1059895493"><ele>270.27</ele><time>2013-12-11T10:27:06Z</time></trkpt><trkpt lat="51.8346552271" lon="-2.1059271041"><ele>271.23</ele><time>2013-12-11T10:27:14Z</time></trkpt><trkpt lat="51.8345797062" lon="-2.1058354899"><ele>273.63</ele><time>2013-12-11T10:27:23Z</time></trkpt><trkpt lat="51.8345494475" lon="-2.1057641599"><ele>274.59</ele><time>2013-12-11T10:27:33Z</time></trkpt><trkpt lat="51.8345733359" lon="-2.1058043092"><ele>274.11</ele><time>2013-12-11T10:27:36Z</time></trkpt><trkpt lat="51.8346222863" lon="-2.1058166306"><ele>272.19</ele><time>2013-12-11T10:27:40Z</time></trkpt><trkpt lat="51.8346813787" lon="-2.1058912296"><ele>270.75</ele><time>2013-12-11T10:27:54Z</time></trkpt><trkpt lat="51.8347184267" lon="-2.1058428660"><ele>270.27</ele><time>2013-12-11T10:27:59Z</time></trkpt><trkpt lat="51.8349174131" lon="-2.1055452246"><ele>272.19</ele><time>2013-12-11T10:28:16Z</time></trkpt><trkpt lat="51.8349987175" lon="-2.1053989604"><ele>273.15</ele><time>2013-12-11T10:28:26Z</time></trkpt><trkpt lat="51.8351322412" lon="-2.1051672846"><ele>273.63</ele><time>2013-12-11T10:28:41Z</time></trkpt><trkpt lat="51.8352362607" lon="-2.1049955394"><ele>274.11</ele><time>2013-12-11T10:28:53Z</time></trkpt><trkpt lat="51.8352877256" lon="-2.1048071980"><ele>275.07</ele><time>2013-12-11T10:29:02Z</time></trkpt><trkpt lat="51.8354405276" lon="-2.1045471914"><ele>275.07</ele><time>2013-12-11T10:29:18Z</time></trkpt><trkpt lat="51.8355254363" lon="-2.1042886935"><ele>277.96</ele><time>2013-12-11T10:29:33Z</time></trkpt><trkpt lat="51.8355333153" lon="-2.1042728517"><ele>277.96</ele><time>2013-12-11T10:29:34Z</time></trkpt><trkpt lat="51.8356721196" lon="-2.1040515695"><ele>276.04</ele><time>2013-12-11T10:29:48Z</time></trkpt><trkpt lat="51.8357100897" lon="-2.1040161140"><ele>275.07</ele><time>2013-12-11T10:29:53Z</time></trkpt><trkpt lat="51.8358507380" lon="-2.1039348934"><ele>272.19</ele><time>2013-12-11T10:30:08Z</time></trkpt><trkpt lat="51.8358603772" lon="-2.1039581951"><ele>272.67</ele><time>2013-12-11T10:30:36Z</time></trkpt><trkpt lat="51.8358638138" lon="-2.1039424371"><ele>272.19</ele><time>2013-12-11T10:30:44Z</time></trkpt><trkpt lat="51.8359676655" lon="-2.1036966797"><ele>271.23</ele><time>2013-12-11T10:30:56Z</time></trkpt><trkpt lat="51.8359293602" lon="-2.1033957694"><ele>270.75</ele><time>2013-12-11T10:31:11Z</time></trkpt><trkpt lat="51.8359571043" lon="-2.1033168118"><ele>269.79</ele><time>2013-12-11T10:31:15Z</time></trkpt><trkpt lat="51.8360602856" lon="-2.1031363495"><ele>269.31</ele><time>2013-12-11T10:31:28Z</time></trkpt><trkpt lat="51.8360677455" lon="-2.1031218488"><ele>269.31</ele><time>2013-12-11T10:31:46Z</time></trkpt><trkpt lat="51.8361631315" lon="-2.1029884927"><ele>272.19</ele><time>2013-12-11T10:32:03Z</time></trkpt><trkpt lat="51.8362017721" lon="-2.1028657816"><ele>275.56</ele><time>2013-12-11T10:32:13Z</time></trkpt><trkpt lat="51.8362909555" lon="-2.1025354508"><ele>276.52</ele><time>2013-12-11T10:32:30Z</time></trkpt><trkpt lat="51.8364284188" lon="-2.1022315230"><ele>277.96</ele><time>2013-12-11T10:32:47Z</time></trkpt><trkpt lat="51.8365297560" lon="-2.1019611228"><ele>277.00</ele><time>2013-12-11T10:33:03Z</time></trkpt><trkpt lat="51.8366222922" lon="-2.1016340610"><ele>277.48</ele><time>2013-12-11T10:33:21Z</time></trkpt><trkpt lat="51.8367219530" lon="-2.1014806721"><ele>279.40</ele><time>2013-12-11T10:33:36Z</time></trkpt><trkpt lat="51.8368183449" lon="-2.1014025528"><ele>279.40</ele><time>2013-12-11T10:33:51Z</time></trkpt><trkpt lat="51.8368289061" lon="-2.1013929974"><ele>277.96</ele><time>2013-12-11T10:34:17Z</time></trkpt><trkpt lat="51.8368646130" lon="-2.1013391018"><ele>278.44</ele><time>2013-12-11T10:34:37Z</time></trkpt><trkpt lat="51.8368996494" lon="-2.1012914926"><ele>277.96</ele><time>2013-12-11T10:34:46Z</time></trkpt><trkpt lat="51.8370633479" lon="-2.1011288837"><ele>277.00</ele><time>2013-12-11T10:35:02Z</time></trkpt><trkpt lat="51.8371780124" lon="-2.1009883191"><ele>275.56</ele><time>2013-12-11T10:35:20Z</time></trkpt><trkpt lat="51.8372155633" lon="-2.1009515226"><ele>275.56</ele><time>2013-12-11T10:35:26Z</time></trkpt><trkpt lat="51.8373930920" lon="-2.1007927693"><ele>275.07</ele><time>2013-12-11T10:35:43Z</time></trkpt><trkpt lat="51.8375800923" lon="-2.1006564796"><ele>275.07</ele><time>2013-12-11T10:35:59Z</time></trkpt><trkpt lat="51.8376650847" lon="-2.1005935315"><ele>274.11</ele><time>2013-12-11T10:36:06Z</time></trkpt><trkpt lat="51.8378679268" lon="-2.1004456747"><ele>273.63</ele><time>2013-12-11T10:36:25Z</time></trkpt><trkpt lat="51.8379398435" lon="-2.1004067827"><ele>273.63</ele><time>2013-12-11T10:36:32Z</time></trkpt><trkpt lat="51.8380854372" lon="-2.1002369653"><ele>271.71</ele><time>2013-12-11T10:36:50Z</time></trkpt><trkpt lat="51.8383069709" lon="-2.1002046112"><ele>270.27</ele><time>2013-12-11T10:37:09Z</time></trkpt><trkpt lat="51.8383168615" lon="-2.1002005879"><ele>269.79</ele><time>2013-12-11T10:37:10Z</time></trkpt><trkpt lat="51.8384956475" lon="-2.1001131646"><ele>268.83</ele><time>2013-12-11T10:37:29Z</time></trkpt><trkpt lat="51.8386559095" lon="-2.1000392362"><ele>266.90</ele><time>2013-12-11T10:37:44Z</time></trkpt><trkpt lat="51.8388271518" lon="-2.0999322832"><ele>265.46</ele><time>2013-12-11T10:38:00Z</time></trkpt><trkpt lat="51.8389901798" lon="-2.0997940656"><ele>264.50</ele><time>2013-12-11T10:38:16Z</time></trkpt><trkpt lat="51.8391744979" lon="-2.0996303670"><ele>262.58</ele><time>2013-12-11T10:38:34Z</time></trkpt><trkpt lat="51.8393345922" lon="-2.0994728711"><ele>261.14</ele><time>2013-12-11T10:38:50Z</time></trkpt><trkpt lat="51.8395225145" lon="-2.0992618985"><ele>259.21</ele><time>2013-12-11T10:39:10Z</time></trkpt><trkpt lat="51.8396680243" lon="-2.0990610681"><ele>257.29</ele><time>2013-12-11T10:39:28Z</time></trkpt><trkpt lat="51.8397815153" lon="-2.0988993812"><ele>255.85</ele><time>2013-12-11T10:39:43Z</time></trkpt><trkpt lat="51.8398959283" lon="-2.0987371914"><ele>254.41</ele><time>2013-12-11T10:39:58Z</time></trkpt><trkpt lat="51.8399680126" lon="-2.0986267179"><ele>252.96</ele><time>2013-12-11T10:40:11Z</time></trkpt><trkpt lat="51.8400917295" lon="-2.0984932780"><ele>252.00</ele><time>2013-12-11T10:40:26Z</time></trkpt><trkpt lat="51.8402254209" lon="-2.0983780269"><ele>251.52</ele><time>2013-12-11T10:40:42Z</time></trkpt><trkpt lat="51.8403859343" lon="-2.0983040985"><ele>251.52</ele><time>2013-12-11T10:40:58Z</time></trkpt><trkpt lat="51.8405095674" lon="-2.0982529689"><ele>251.52</ele><time>2013-12-11T10:41:12Z</time></trkpt><trkpt lat="51.8405609485" lon="-2.0982440840"><ele>251.04</ele><time>2013-12-11T10:41:17Z</time></trkpt><trkpt lat="51.8407750223" lon="-2.0981563255"><ele>250.56</ele><time>2013-12-11T10:41:36Z</time></trkpt><trkpt lat="51.8407883495" lon="-2.0981516317"><ele>249.60</ele><time>2013-12-11T10:41:37Z</time></trkpt><trkpt lat="51.8409801275" lon="-2.0980826486"><ele>249.12</ele><time>2013-12-11T10:41:54Z</time></trkpt><trkpt lat="51.8411704805" lon="-2.0979736838"><ele>247.68</ele><time>2013-12-11T10:42:11Z</time></trkpt><trkpt lat="51.8413667846" lon="-2.0979037788"><ele>246.23</ele><time>2013-12-11T10:42:27Z</time></trkpt><trkpt lat="51.8415405415" lon="-2.0978051238"><ele>244.79</ele><time>2013-12-11T10:42:46Z</time></trkpt><trkpt lat="51.8417397793" lon="-2.0977254957"><ele>243.83</ele><time>2013-12-11T10:43:05Z</time></trkpt><trkpt lat="51.8418525998" lon="-2.0976670738"><ele>242.87</ele><time>2013-12-11T10:43:15Z</time></trkpt><trkpt lat="51.8419519253" lon="-2.0976192132"><ele>242.87</ele><time>2013-12-11T10:43:23Z</time></trkpt><trkpt lat="51.8421239220" lon="-2.0974465460"><ele>240.95</ele><time>2013-12-11T10:43:41Z</time></trkpt><trkpt lat="51.8422985170" lon="-2.0973290317"><ele>240.47</ele><time>2013-12-11T10:43:55Z</time></trkpt><trkpt lat="51.8424553424" lon="-2.0971691050"><ele>239.51</ele><time>2013-12-11T10:44:11Z</time></trkpt><trkpt lat="51.8425229844" lon="-2.0971099287"><ele>238.54</ele><time>2013-12-11T10:44:18Z</time></trkpt><trkpt lat="51.8426839169" lon="-2.0969120320"><ele>237.58</ele><time>2013-12-11T10:44:36Z</time></trkpt><trkpt lat="51.8429001700" lon="-2.0967327431"><ele>236.14</ele><time>2013-12-11T10:44:52Z</time></trkpt><trkpt lat="51.8430657126" lon="-2.0965343434"><ele>235.66</ele><time>2013-12-11T10:45:09Z</time></trkpt><trkpt lat="51.8432293274" lon="-2.0962898433"><ele>233.26</ele><time>2013-12-11T10:45:29Z</time></trkpt><trkpt lat="51.8434337620" lon="-2.0960737579"><ele>231.81</ele><time>2013-12-11T10:45:49Z</time></trkpt><trkpt lat="51.8435583171" lon="-2.0959831495"><ele>230.85</ele><time>2013-12-11T10:46:01Z</time></trkpt><trkpt lat="51.8436859734" lon="-2.0959919505"><ele>230.85</ele><time>2013-12-11T10:46:14Z</time></trkpt><trkpt lat="51.8436861411" lon="-2.0959966443"><ele>230.85</ele><time>2013-12-11T10:46:30Z</time></trkpt><trkpt lat="51.8437009770" lon="-2.0959899388"><ele>230.85</ele><time>2013-12-11T10:46:47Z</time></trkpt><trkpt lat="51.8437253684" lon="-2.0959914476"><ele>230.37</ele><time>2013-12-11T10:46:59Z</time></trkpt><trkpt lat="51.8437464070" lon="-2.0959640387"><ele>230.37</ele><time>2013-12-11T10:47:17Z</time></trkpt><trkpt lat="51.8437458202" lon="-2.0959940460"><ele>230.37</ele><time>2013-12-11T10:47:34Z</time></trkpt><trkpt lat="51.8437476642" lon="-2.0960066188"><ele>230.37</ele><time>2013-12-11T10:47:42Z</time></trkpt><trkpt lat="51.8438260350" lon="-2.0960459299"><ele>229.41</ele><time>2013-12-11T10:47:56Z</time></trkpt><trkpt lat="51.8439189065" lon="-2.0962259732"><ele>227.01</ele><time>2013-12-11T10:48:14Z</time></trkpt><trkpt lat="51.8439472374" lon="-2.0963346865"><ele>226.05</ele><time>2013-12-11T10:48:31Z</time></trkpt><trkpt lat="51.8439676054" lon="-2.0964614209"><ele>226.53</ele><time>2013-12-11T10:48:40Z</time></trkpt><trkpt lat="51.8439621571" lon="-2.0965028275"><ele>226.53</ele><time>2013-12-11T10:48:43Z</time></trkpt><trkpt lat="51.8439286295" lon="-2.0967275463"><ele>225.57</ele><time>2013-12-11T10:48:58Z</time></trkpt><trkpt lat="51.8438529409" lon="-2.0970046520"><ele>226.53</ele><time>2013-12-11T10:49:12Z</time></trkpt><trkpt lat="51.8437948544" lon="-2.0972261019"><ele>226.53</ele><time>2013-12-11T10:49:25Z</time></trkpt><trkpt lat="51.8436861411" lon="-2.0974778943"><ele>227.01</ele><time>2013-12-11T10:49:41Z</time></trkpt><trkpt lat="51.8436353467" lon="-2.0976675767"><ele>227.49</ele><time>2013-12-11T10:49:54Z</time></trkpt><trkpt lat="51.8435953651" lon="-2.0978779625"><ele>227.97</ele><time>2013-12-11T10:50:06Z</time></trkpt><trkpt lat="51.8435697164" lon="-2.0980846602"><ele>227.97</ele><time>2013-12-11T10:50:20Z</time></trkpt><trkpt lat="51.8435631786" lon="-2.0981875062"><ele>228.45</ele><time>2013-12-11T10:50:34Z</time></trkpt><trkpt lat="51.8435613345" lon="-2.0981875900"><ele>225.57</ele><time>2013-12-11T10:50:48Z</time></trkpt><trkpt lat="51.8435611669" lon="-2.0981883444"><ele>228.45</ele><time>2013-12-11T10:50:49Z</time></trkpt><trkpt lat="51.8434988055" lon="-2.0983962156"><ele>227.97</ele><time>2013-12-11T10:51:03Z</time></trkpt><trkpt lat="51.8434541300" lon="-2.0986691304"><ele>227.97</ele><time>2013-12-11T10:51:19Z</time></trkpt><trkpt lat="51.8433989771" lon="-2.0989738964"><ele>227.97</ele><time>2013-12-11T10:51:32Z</time></trkpt><trkpt lat="51.8433322571" lon="-2.0992660057"><ele>227.01</ele><time>2013-12-11T10:51:46Z</time></trkpt><trkpt lat="51.8433291558" lon="-2.0993469749"><ele>227.01</ele><time>2013-12-11T10:51:50Z</time></trkpt><trkpt lat="51.8433754239" lon="-2.0995190553"><ele>228.45</ele><time>2013-12-11T10:52:06Z</time></trkpt><trkpt lat="51.8434128910" lon="-2.0997968316"><ele>228.93</ele><time>2013-12-11T10:52:23Z</time></trkpt><trkpt lat="51.8434121367" lon="-2.0998416748"><ele>229.41</ele><time>2013-12-11T10:52:25Z</time></trkpt><trkpt lat="51.8433821294" lon="-2.0998705085"><ele>229.41</ele><time>2013-12-11T10:52:39Z</time></trkpt><trkpt lat="51.8433862366" lon="-2.1000907011"><ele>231.33</ele><time>2013-12-11T10:52:53Z</time></trkpt><trkpt lat="51.8433640245" lon="-2.1003694832"><ele>232.78</ele><time>2013-12-11T10:53:09Z</time></trkpt><trkpt lat="51.8432532158" lon="-2.1007111296"><ele>234.70</ele><time>2013-12-11T10:53:25Z</time></trkpt><trkpt lat="51.8431993201" lon="-2.1010502614"><ele>236.14</ele><time>2013-12-11T10:53:44Z</time></trkpt><trkpt lat="51.8431357015" lon="-2.1012604795"><ele>236.14</ele><time>2013-12-11T10:54:00Z</time></trkpt><trkpt lat="51.8430435844" lon="-2.1014975198"><ele>236.14</ele><time>2013-12-11T10:54:16Z</time></trkpt><trkpt lat="51.8429093901" lon="-2.1017970052"><ele>236.62</ele><time>2013-12-11T10:54:33Z</time></trkpt><trkpt lat="51.8428710848" lon="-2.1018391661"><ele>237.58</ele><time>2013-12-11T10:54:47Z</time></trkpt><trkpt lat="51.8428312708" lon="-2.1019203868"><ele>237.10</ele><time>2013-12-11T10:54:52Z</time></trkpt><trkpt lat="51.8428377248" lon="-2.1021618694"><ele>238.54</ele><time>2013-12-11T10:55:05Z</time></trkpt><trkpt lat="51.8428188656" lon="-2.1022942197"><ele>238.54</ele><time>2013-12-11T10:55:20Z</time></trkpt><trkpt lat="51.8428274151" lon="-2.1023196168"><ele>239.02</ele><time>2013-12-11T10:55:22Z</time></trkpt><trkpt lat="51.8427495472" lon="-2.1026443318"><ele>239.02</ele><time>2013-12-11T10:55:40Z</time></trkpt><trkpt lat="51.8427538220" lon="-2.1027319226"><ele>239.51</ele><time>2013-12-11T10:55:56Z</time></trkpt><trkpt lat="51.8427696638" lon="-2.1028623451"><ele>239.99</ele><time>2013-12-11T10:56:14Z</time></trkpt><trkpt lat="51.8427534867" lon="-2.1030385327"><ele>241.43</ele><time>2013-12-11T10:56:27Z</time></trkpt><trkpt lat="51.8427333701" lon="-2.1031027380"><ele>241.91</ele><time>2013-12-11T10:56:30Z</time></trkpt><trkpt lat="51.8426699191" lon="-2.1033223439"><ele>241.91</ele><time>2013-12-11T10:56:43Z</time></trkpt><trkpt lat="51.8426155206" lon="-2.1036097594"><ele>242.39</ele><time>2013-12-11T10:56:59Z</time></trkpt><trkpt lat="51.8425917160" lon="-2.1038137749"><ele>242.87</ele><time>2013-12-11T10:57:12Z</time></trkpt><trkpt lat="51.8425736949" lon="-2.1039240807"><ele>243.35</ele><time>2013-12-11T10:57:29Z</time></trkpt><trkpt lat="51.8425451964" lon="-2.1040510666"><ele>243.35</ele><time>2013-12-11T10:57:45Z</time></trkpt><trkpt lat="51.8424472120" lon="-2.1043020207"><ele>243.35</ele><time>2013-12-11T10:58:03Z</time></trkpt><trkpt lat="51.8424147740" lon="-2.1045536455"><ele>244.31</ele><time>2013-12-11T10:58:19Z</time></trkpt><trkpt lat="51.8423946574" lon="-2.1046808828"><ele>244.79</ele><time>2013-12-11T10:58:28Z</time></trkpt><trkpt lat="51.8423921429" lon="-2.1047414001"><ele>245.27</ele><time>2013-12-11T10:58:32Z</time></trkpt><trkpt lat="51.8423748761" lon="-2.1048745047"><ele>244.79</ele><time>2013-12-11T10:58:41Z</time></trkpt><trkpt lat="51.8423655722" lon="-2.1049229521"><ele>244.79</ele><time>2013-12-11T10:58:44Z</time></trkpt><trkpt lat="51.8423193041" lon="-2.1050195955"><ele>245.27</ele><time>2013-12-11T10:58:58Z</time></trkpt><trkpt lat="51.8423380796" lon="-2.1052364353"><ele>245.27</ele><time>2013-12-11T10:59:13Z</time></trkpt><trkpt lat="51.8423174601" lon="-2.1053917520"><ele>246.72</ele><time>2013-12-11T10:59:29Z</time></trkpt><trkpt lat="51.8423165381" lon="-2.1054158919"><ele>246.72</ele><time>2013-12-11T10:59:41Z</time></trkpt><trkpt lat="51.8423342239" lon="-2.1054572146"><ele>246.72</ele><time>2013-12-11T10:59:44Z</time></trkpt><trkpt lat="51.8423752114" lon="-2.1056008805"><ele>247.20</ele><time>2013-12-11T10:59:52Z</time></trkpt><trkpt lat="51.8424573541" lon="-2.1058251802"><ele>248.64</ele><time>2013-12-11T11:00:05Z</time></trkpt><trkpt lat="51.8424739502" lon="-2.1058301255"><ele>249.12</ele><time>2013-12-11T11:00:20Z</time></trkpt><trkpt lat="51.8424810749" lon="-2.1058410220"><ele>249.12</ele><time>2013-12-11T11:00:34Z</time></trkpt><trkpt lat="51.8425776344" lon="-2.1060200594"><ele>251.52</ele><time>2013-12-11T11:00:46Z</time></trkpt><trkpt lat="51.8425876927" lon="-2.1060583647"><ele>252.00</ele><time>2013-12-11T11:00:48Z</time></trkpt><trkpt lat="51.8426733557" lon="-2.1063009370"><ele>255.85</ele><time>2013-12-11T11:01:02Z</time></trkpt><trkpt lat="51.8426763732" lon="-2.1063174494"><ele>256.33</ele><time>2013-12-11T11:01:03Z</time></trkpt><trkpt lat="51.8426868506" lon="-2.1064042021"><ele>258.73</ele><time>2013-12-11T11:01:07Z</time></trkpt><trkpt lat="51.8427016865" lon="-2.1064440999"><ele>257.77</ele><time>2013-12-11T11:01:09Z</time></trkpt><trkpt lat="51.8427081406" lon="-2.1064777113"><ele>256.81</ele><time>2013-12-11T11:01:11Z</time></trkpt><trkpt lat="51.8427420873" lon="-2.1065732650"><ele>255.85</ele><time>2013-12-11T11:01:17Z</time></trkpt><trkpt lat="51.8427715916" lon="-2.1066999156"><ele>256.81</ele><time>2013-12-11T11:01:24Z</time></trkpt><trkpt lat="51.8427824043" lon="-2.1067672223"><ele>257.77</ele><time>2013-12-11T11:01:28Z</time></trkpt><trkpt lat="51.8427976593" lon="-2.1068504546"><ele>258.73</ele><time>2013-12-11T11:01:44Z</time></trkpt><trkpt lat="51.8428186979" lon="-2.1068830602"><ele>258.73</ele><time>2013-12-11T11:01:48Z</time></trkpt><trkpt lat="51.8429187778" lon="-2.1068934537"><ele>261.62</ele><time>2013-12-11T11:02:02Z</time></trkpt><trkpt lat="51.8429316022" lon="-2.1069019195"><ele>259.21</ele><time>2013-12-11T11:02:15Z</time></trkpt><trkpt lat="51.8429456837" lon="-2.1069698129"><ele>259.21</ele><time>2013-12-11T11:02:28Z</time></trkpt><trkpt lat="51.8429336976" lon="-2.1069837268"><ele>259.69</ele><time>2013-12-11T11:02:39Z</time></trkpt><trkpt lat="51.8429069594" lon="-2.1070465911"><ele>259.69</ele><time>2013-12-11T11:02:53Z</time></trkpt><trkpt lat="51.8429058697" lon="-2.1070557274"><ele>260.65</ele><time>2013-12-11T11:03:24Z</time></trkpt><trkpt lat="51.8428769521" lon="-2.1071353555"><ele>260.65</ele><time>2013-12-11T11:03:34Z</time></trkpt><trkpt lat="51.8428773712" lon="-2.1072486788"><ele>260.65</ele><time>2013-12-11T11:03:43Z</time></trkpt><trkpt lat="51.8428730965" lon="-2.1073036641"><ele>261.62</ele><time>2013-12-11T11:03:46Z</time></trkpt><trkpt lat="51.8428135011" lon="-2.1074796002"><ele>260.65</ele><time>2013-12-11T11:04:01Z</time></trkpt><trkpt lat="51.8428697437" lon="-2.1074221842"><ele>262.10</ele><time>2013-12-11T11:04:09Z</time></trkpt><trkpt lat="51.8430750165" lon="-2.1071060188"><ele>261.62</ele><time>2013-12-11T11:04:29Z</time></trkpt><trkpt lat="51.8432253879" lon="-2.1068611834"><ele>263.06</ele><time>2013-12-11T11:04:45Z</time></trkpt><trkpt lat="51.8433924392" lon="-2.1066001710"><ele>264.98</ele><time>2013-12-11T11:05:03Z</time></trkpt><trkpt lat="51.8435734045" lon="-2.1063213050"><ele>264.02</ele><time>2013-12-11T11:05:20Z</time></trkpt><trkpt lat="51.8436958641" lon="-2.1061591152"><ele>265.46</ele><time>2013-12-11T11:05:35Z</time></trkpt><trkpt lat="51.8437368516" lon="-2.1060963348"><ele>266.90</ele><time>2013-12-11T11:05:45Z</time></trkpt><trkpt lat="51.8437505979" lon="-2.1060743742"><ele>265.94</ele><time>2013-12-11T11:05:47Z</time></trkpt><trkpt lat="51.8438046612" lon="-2.1059712768"><ele>266.42</ele><time>2013-12-11T11:05:54Z</time></trkpt><trkpt lat="51.8438298069" lon="-2.1059260145"><ele>266.42</ele><time>2013-12-11T11:05:58Z</time></trkpt><trkpt lat="51.8438396975" lon="-2.1058949176"><ele>265.46</ele><time>2013-12-11T11:06:00Z</time></trkpt><trkpt lat="51.8438741472" lon="-2.1058300417"><ele>266.42</ele><time>2013-12-11T11:06:05Z</time></trkpt><trkpt lat="51.8439067528" lon="-2.1057530120"><ele>266.90</ele><time>2013-12-11T11:06:12Z</time></trkpt><trkpt lat="51.8439274561" lon="-2.1056940034"><ele>266.90</ele><time>2013-12-11T11:06:16Z</time></trkpt><trkpt lat="51.8439796753" lon="-2.1056095976"><ele>268.35</ele><time>2013-12-11T11:06:29Z</time></trkpt><trkpt lat="51.8440158013" lon="-2.1055166423"><ele>266.90</ele><time>2013-12-11T11:06:42Z</time></trkpt><trkpt lat="51.8440240994" lon="-2.1054523531"><ele>270.27</ele><time>2013-12-11T11:06:49Z</time></trkpt><trkpt lat="51.8440286256" lon="-2.1054880600"><ele>268.35</ele><time>2013-12-11T11:07:01Z</time></trkpt><trkpt lat="51.8440431263" lon="-2.1055000462"><ele>267.38</ele><time>2013-12-11T11:07:12Z</time></trkpt><trkpt lat="51.8440550286" lon="-2.1054784209"><ele>267.86</ele><time>2013-12-11T11:07:34Z</time></trkpt><trkpt lat="51.8440898973" lon="-2.1054288000"><ele>267.86</ele><time>2013-12-11T11:07:48Z</time></trkpt><trkpt lat="51.8441326451" lon="-2.1054014750"><ele>268.83</ele><time>2013-12-11T11:08:02Z</time></trkpt><trkpt lat="51.8442347366" lon="-2.1054288838"><ele>266.42</ele><time>2013-12-11T11:08:14Z</time></trkpt><trkpt lat="51.8443628959" lon="-2.1053251997"><ele>264.98</ele><time>2013-12-11T11:08:29Z</time></trkpt><trkpt lat="51.8445273489" lon="-2.1052001417"><ele>264.98</ele><time>2013-12-11T11:08:45Z</time></trkpt><trkpt lat="51.8445880339" lon="-2.1050362755"><ele>264.50</ele><time>2013-12-11T11:09:02Z</time></trkpt><trkpt lat="51.8446301110" lon="-2.1048807912"><ele>264.02</ele><time>2013-12-11T11:09:19Z</time></trkpt><trkpt lat="51.8446263392" lon="-2.1048439108"><ele>264.02</ele><time>2013-12-11T11:09:40Z</time></trkpt><trkpt lat="51.8446255848" lon="-2.1048214473"><ele>264.50</ele><time>2013-12-11T11:10:14Z</time></trkpt><trkpt lat="51.8446302786" lon="-2.1048165858"><ele>264.50</ele><time>2013-12-11T11:10:35Z</time></trkpt><trkpt lat="51.8446375709" lon="-2.1048004087"><ele>264.02</ele><time>2013-12-11T11:11:01Z</time></trkpt><trkpt lat="51.8446120899" lon="-2.1047906857"><ele>263.54</ele><time>2013-12-11T11:11:23Z</time></trkpt><trkpt lat="51.8446152750" lon="-2.1047880873"><ele>264.50</ele><time>2013-12-11T11:11:46Z</time></trkpt><trkpt lat="51.8446072284" lon="-2.1048184298"><ele>263.54</ele><time>2013-12-11T11:12:14Z</time></trkpt><trkpt lat="51.8446074799" lon="-2.1048282366"><ele>264.50</ele><time>2013-12-11T11:12:40Z</time></trkpt><trkpt lat="51.8446172867" lon="-2.1048325952"><ele>264.50</ele><time>2013-12-11T11:13:10Z</time></trkpt><trkpt lat="51.8446156941" lon="-2.1048881672"><ele>264.50</ele><time>2013-12-11T11:13:38Z</time></trkpt><trkpt lat="51.8445917219" lon="-2.1049587429"><ele>264.98</ele><time>2013-12-11T11:14:02Z</time></trkpt><trkpt lat="51.8446235731" lon="-2.1048789471"><ele>264.50</ele><time>2013-12-11T11:14:27Z</time></trkpt><trkpt lat="51.8446286861" lon="-2.1048733313"><ele>264.02</ele><time>2013-12-11T11:14:55Z</time></trkpt><trkpt lat="51.8446355592" lon="-2.1048271470"><ele>264.02</ele><time>2013-12-11T11:15:21Z</time></trkpt><trkpt lat="51.8446312007" lon="-2.1048057731"><ele>263.54</ele><time>2013-12-11T11:15:46Z</time></trkpt><trkpt lat="51.8446404207" lon="-2.1047579125"><ele>264.50</ele><time>2013-12-11T11:16:06Z</time></trkpt><trkpt lat="51.8446381576" lon="-2.1047693957"><ele>264.50</ele><time>2013-12-11T11:16:30Z</time></trkpt><trkpt lat="51.8446326256" lon="-2.1047781128"><ele>264.50</ele><time>2013-12-11T11:16:58Z</time></trkpt><trkpt lat="51.8446291890" lon="-2.1047842316"><ele>264.98</ele><time>2013-12-11T11:17:26Z</time></trkpt><trkpt lat="51.8446255010" lon="-2.1048181783"><ele>264.50</ele><time>2013-12-11T11:17:52Z</time></trkpt><trkpt lat="51.8446302786" lon="-2.1048336010"><ele>264.98</ele><time>2013-12-11T11:18:24Z</time></trkpt><trkpt lat="51.8446301948" lon="-2.1048326790"><ele>265.46</ele><time>2013-12-11T11:18:54Z</time></trkpt><trkpt lat="51.8446404207" lon="-2.1048302483"><ele>265.94</ele><time>2013-12-11T11:19:21Z</time></trkpt><trkpt lat="51.8446500599" lon="-2.1048196871"><ele>265.46</ele><time>2013-12-11T11:19:48Z</time></trkpt><trkpt lat="51.8446529936" lon="-2.1048198547"><ele>265.94</ele><time>2013-12-11T11:20:24Z</time></trkpt><trkpt lat="51.8446545862" lon="-2.1048177592"><ele>265.94</ele><time>2013-12-11T11:20:54Z</time></trkpt><trkpt lat="51.8446652312" lon="-2.1048254706"><ele>265.94</ele><time>2013-12-11T11:21:20Z</time></trkpt><trkpt lat="51.8446799833" lon="-2.1048255544"><ele>266.42</ele><time>2013-12-11T11:21:54Z</time></trkpt><trkpt lat="51.8446809053" lon="-2.1048308350"><ele>265.94</ele><time>2013-12-11T11:22:26Z</time></trkpt><trkpt lat="51.8446651474" lon="-2.1048356965"><ele>266.42</ele><time>2013-12-11T11:22:56Z</time></trkpt><trkpt lat="51.8446468748" lon="-2.1048460063"><ele>266.42</ele><time>2013-12-11T11:23:21Z</time></trkpt><trkpt lat="51.8446465395" lon="-2.1048476826"><ele>266.90</ele><time>2013-12-11T11:23:23Z</time></trkpt><trkpt lat="51.8446427677" lon="-2.1048424020"><ele>266.42</ele><time>2013-12-11T11:23:50Z</time></trkpt><trkpt lat="51.8446361460" lon="-2.1048477665"><ele>266.90</ele><time>2013-12-11T11:24:21Z</time></trkpt><trkpt lat="51.8446370680" lon="-2.1048610099"><ele>266.90</ele><time>2013-12-11T11:24:49Z</time></trkpt><trkpt lat="51.8446379900" lon="-2.1048551425"><ele>266.90</ele><time>2013-12-11T11:25:12Z</time></trkpt><trkpt lat="51.8446356431" lon="-2.1048490237"><ele>267.38</ele><time>2013-12-11T11:25:40Z</time></trkpt><trkpt lat="51.8446419295" lon="-2.1048359480"><ele>267.38</ele><time>2013-12-11T11:26:05Z</time></trkpt><trkpt lat="51.8446670752" lon="-2.1047822200"><ele>267.86</ele><time>2013-12-11T11:26:28Z</time></trkpt><trkpt lat="51.8447293527" lon="-2.1045922022"><ele>269.31</ele><time>2013-12-11T11:26:50Z</time></trkpt><trkpt lat="51.8447889481" lon="-2.1045318525"><ele>269.79</ele><time>2013-12-11T11:27:10Z</time></trkpt><trkpt lat="51.8448768742" lon="-2.1044307668"><ele>268.83</ele><time>2013-12-11T11:27:30Z</time></trkpt><trkpt lat="51.8448868487" lon="-2.1041489672"><ele>268.35</ele><time>2013-12-11T11:27:46Z</time></trkpt><trkpt lat="51.8448845856" lon="-2.1040980052"><ele>268.83</ele><time>2013-12-11T11:27:49Z</time></trkpt><trkpt lat="51.8449010141" lon="-2.1038537566"><ele>268.83</ele><time>2013-12-11T11:28:07Z</time></trkpt><trkpt lat="51.8448726833" lon="-2.1038129367"><ele>268.83</ele><time>2013-12-11T11:28:31Z</time></trkpt><trkpt lat="51.8448651396" lon="-2.1037993580"><ele>268.83</ele><time>2013-12-11T11:28:55Z</time></trkpt><trkpt lat="51.8448785506" lon="-2.1038177982"><ele>268.83</ele><time>2013-12-11T11:29:24Z</time></trkpt><trkpt lat="51.8448865972" lon="-2.1038992703"><ele>268.35</ele><time>2013-12-11T11:29:39Z</time></trkpt><trkpt lat="51.8448896147" lon="-2.1038369928"><ele>268.83</ele><time>2013-12-11T11:29:54Z</time></trkpt><trkpt lat="51.8448783830" lon="-2.1038262639"><ele>267.86</ele><time>2013-12-11T11:30:18Z</time></trkpt><trkpt lat="51.8448781315" lon="-2.1038255095"><ele>269.79</ele><time>2013-12-11T11:30:21Z</time></trkpt><trkpt lat="51.8449814804" lon="-2.1038799919"><ele>268.83</ele><time>2013-12-11T11:30:36Z</time></trkpt><trkpt lat="51.8450644612" lon="-2.1039749589"><ele>268.83</ele><time>2013-12-11T11:30:53Z</time></trkpt><trkpt lat="51.8450857513" lon="-2.1040147729"><ele>269.31</ele><time>2013-12-11T11:31:20Z</time></trkpt><trkpt lat="51.8450782076" lon="-2.1039673313"><ele>269.31</ele><time>2013-12-11T11:31:35Z</time></trkpt><trkpt lat="51.8450932950" lon="-2.1039606258"><ele>269.31</ele><time>2013-12-11T11:32:00Z</time></trkpt><trkpt lat="51.8450548220" lon="-2.1036877111"><ele>268.83</ele><time>2013-12-11T11:32:17Z</time></trkpt><trkpt lat="51.8450022675" lon="-2.1034323145"><ele>268.83</ele><time>2013-12-11T11:32:35Z</time></trkpt><trkpt lat="51.8450021837" lon="-2.1032183245"><ele>269.79</ele><time>2013-12-11T11:32:51Z</time></trkpt><trkpt lat="51.8451959733" lon="-2.1029836312"><ele>269.79</ele><time>2013-12-11T11:33:11Z</time></trkpt><trkpt lat="51.8452626932" lon="-2.1028007381"><ele>268.83</ele><time>2013-12-11T11:33:29Z</time></trkpt><trkpt lat="51.8452579994" lon="-2.1027846448"><ele>269.79</ele><time>2013-12-11T11:33:32Z</time></trkpt><trkpt lat="51.8452512100" lon="-2.1027520392"><ele>270.27</ele><time>2013-12-11T11:33:34Z</time></trkpt><trkpt lat="51.8453347776" lon="-2.1023362968"><ele>268.35</ele><time>2013-12-11T11:33:54Z</time></trkpt><trkpt lat="51.8452765234" lon="-2.1019879449"><ele>267.86</ele><time>2013-12-11T11:34:13Z</time></trkpt><trkpt lat="51.8452420738" lon="-2.1016683429"><ele>265.94</ele><time>2013-12-11T11:34:35Z</time></trkpt><trkpt lat="51.8452309258" lon="-2.1015260182"><ele>264.02</ele><time>2013-12-11T11:34:54Z</time></trkpt><trkpt lat="51.8450817280" lon="-2.1010940988"><ele>262.58</ele><time>2013-12-11T11:35:12Z</time></trkpt><trkpt lat="51.8449873477" lon="-2.1007647738"><ele>259.69</ele><time>2013-12-11T11:35:32Z</time></trkpt><trkpt lat="51.8449650519" lon="-2.1006259695"><ele>258.25</ele><time>2013-12-11T11:35:51Z</time></trkpt><trkpt lat="51.8449112400" lon="-2.1002848260"><ele>254.41</ele><time>2013-12-11T11:36:10Z</time></trkpt><trkpt lat="51.8448521476" lon="-2.1000911202"><ele>252.48</ele><time>2013-12-11T11:36:28Z</time></trkpt><trkpt lat="51.8448232301" lon="-2.0999297686"><ele>249.60</ele><time>2013-12-11T11:36:43Z</time></trkpt><trkpt lat="51.8447436858" lon="-2.0996828377"><ele>246.23</ele><time>2013-12-11T11:37:01Z</time></trkpt><trkpt lat="51.8446888682" lon="-2.0993805863"><ele>242.87</ele><time>2013-12-11T11:37:19Z</time></trkpt><trkpt lat="51.8445973378" lon="-2.0990044903"><ele>239.99</ele><time>2013-12-11T11:37:38Z</time></trkpt><trkpt lat="51.8445778918" lon="-2.0988432225"><ele>237.10</ele><time>2013-12-11T11:37:59Z</time></trkpt><trkpt lat="51.8445063941" lon="-2.0984513685"><ele>234.70</ele><time>2013-12-11T11:38:16Z</time></trkpt><trkpt lat="51.8444271851" lon="-2.0981848240"><ele>232.30</ele><time>2013-12-11T11:38:33Z</time></trkpt><trkpt lat="51.8443964235" lon="-2.0979377255"><ele>229.41</ele><time>2013-12-11T11:38:55Z</time></trkpt><trkpt lat="51.8443122692" lon="-2.0976286009"><ele>227.49</ele><time>2013-12-11T11:39:13Z</time></trkpt><trkpt lat="51.8442193139" lon="-2.0972137805"><ele>226.53</ele><time>2013-12-11T11:39:37Z</time></trkpt><trkpt lat="51.8441249337" lon="-2.0968093537"><ele>225.57</ele><time>2013-12-11T11:39:54Z</time></trkpt><trkpt lat="51.8440507539" lon="-2.0965477545"><ele>225.57</ele><time>2013-12-11T11:40:12Z</time></trkpt><trkpt lat="51.8439360056" lon="-2.0962882508"><ele>227.01</ele><time>2013-12-11T11:40:30Z</time></trkpt><trkpt lat="51.8438785896" lon="-2.0961344428"><ele>227.49</ele><time>2013-12-11T11:40:51Z</time></trkpt><trkpt lat="51.8437858019" lon="-2.0960109774"><ele>229.89</ele><time>2013-12-11T11:41:09Z</time></trkpt><trkpt lat="51.8437252007" lon="-2.0960240532"><ele>230.85</ele><time>2013-12-11T11:41:26Z</time></trkpt><trkpt lat="51.8436820339" lon="-2.0959839039"><ele>230.85</ele><time>2013-12-11T11:41:41Z</time></trkpt><trkpt lat="51.8436765019" lon="-2.0960046910"><ele>230.85</ele><time>2013-12-11T11:42:02Z</time></trkpt><trkpt lat="51.8436689582" lon="-2.0960188564"><ele>230.37</ele><time>2013-12-11T11:42:20Z</time></trkpt><trkpt lat="51.8436612468" lon="-2.0960217062"><ele>230.37</ele><time>2013-12-11T11:42:21Z</time></trkpt><trkpt lat="51.8435257953" lon="-2.0960028470"><ele>231.33</ele><time>2013-12-11T11:42:36Z</time></trkpt><trkpt lat="51.8434041739" lon="-2.0960683096"><ele>231.81</ele><time>2013-12-11T11:42:51Z</time></trkpt><trkpt lat="51.8432393856" lon="-2.0961823035"><ele>232.78</ele><time>2013-12-11T11:43:05Z</time></trkpt><trkpt lat="51.8431785330" lon="-2.0962541364"><ele>233.26</ele><time>2013-12-11T11:43:12Z</time></trkpt><trkpt lat="51.8431283254" lon="-2.0963307470"><ele>234.22</ele><time>2013-12-11T11:43:27Z</time></trkpt><trkpt lat="51.8431341927" lon="-2.0963372849"><ele>233.74</ele><time>2013-12-11T11:43:49Z</time></trkpt><trkpt lat="51.8431270681" lon="-2.0963601675"><ele>234.22</ele><time>2013-12-11T11:43:52Z</time></trkpt><trkpt lat="51.8429835699" lon="-2.0965513587"><ele>234.70</ele><time>2013-12-11T11:44:09Z</time></trkpt><trkpt lat="51.8429480307" lon="-2.0965866465"><ele>235.18</ele><time>2013-12-11T11:44:12Z</time></trkpt><trkpt lat="51.8428170215" lon="-2.0967349224"><ele>235.66</ele><time>2013-12-11T11:44:28Z</time></trkpt><trkpt lat="51.8427249044" lon="-2.0968666021"><ele>236.14</ele><time>2013-12-11T11:44:44Z</time></trkpt><trkpt lat="51.8427456915" lon="-2.0968636684"><ele>236.62</ele><time>2013-12-11T11:45:00Z</time></trkpt><trkpt lat="51.8426212203" lon="-2.0969498344"><ele>237.10</ele><time>2013-12-11T11:45:17Z</time></trkpt><trkpt lat="51.8424970843" lon="-2.0970898122"><ele>238.06</ele><time>2013-12-11T11:45:33Z</time></trkpt><trkpt lat="51.8424555101" lon="-2.0971225854"><ele>238.06</ele><time>2013-12-11T11:45:37Z</time></trkpt><trkpt lat="51.8422767241" lon="-2.0972235035"><ele>238.06</ele><time>2013-12-11T11:45:51Z</time></trkpt><trkpt lat="51.8421658315" lon="-2.0973080769"><ele>239.51</ele><time>2013-12-11T11:46:07Z</time></trkpt><trkpt lat="51.8420657516" lon="-2.0974457078"><ele>241.43</ele><time>2013-12-11T11:46:19Z</time></trkpt><trkpt lat="51.8419556133" lon="-2.0975438599"><ele>240.47</ele><time>2013-12-11T11:46:34Z</time></trkpt><trkpt lat="51.8418401107" lon="-2.0976433530"><ele>241.91</ele><time>2013-12-11T11:46:48Z</time></trkpt><trkpt lat="51.8416771665" lon="-2.0976993442"><ele>242.87</ele><time>2013-12-11T11:47:06Z</time></trkpt><trkpt lat="51.8414551299" lon="-2.0978262462"><ele>244.31</ele><time>2013-12-11T11:47:23Z</time></trkpt><trkpt lat="51.8412938621" lon="-2.0979027729"><ele>245.27</ele><time>2013-12-11T11:47:40Z</time></trkpt><trkpt lat="51.8410891760" lon="-2.0980004221"><ele>246.23</ele><time>2013-12-11T11:48:00Z</time></trkpt><trkpt lat="51.8410723284" lon="-2.0980120730"><ele>246.72</ele><time>2013-12-11T11:48:02Z</time></trkpt><trkpt lat="51.8409004156" lon="-2.0981082972"><ele>248.16</ele><time>2013-12-11T11:48:21Z</time></trkpt><trkpt lat="51.8407437578" lon="-2.0981409028"><ele>248.64</ele><time>2013-12-11T11:48:38Z</time></trkpt><trkpt lat="51.8405712582" lon="-2.0981387235"><ele>249.12</ele><time>2013-12-11T11:48:56Z</time></trkpt><trkpt lat="51.8403412588" lon="-2.0982460957"><ele>249.12</ele><time>2013-12-11T11:49:18Z</time></trkpt><trkpt lat="51.8401913904" lon="-2.0983613469"><ele>249.60</ele><time>2013-12-11T11:49:34Z</time></trkpt><trkpt lat="51.8400791567" lon="-2.0984596666"><ele>250.08</ele><time>2013-12-11T11:49:47Z</time></trkpt><trkpt lat="51.8400069047" lon="-2.0985439885"><ele>250.08</ele><time>2013-12-11T11:50:01Z</time></trkpt><trkpt lat="51.8398653343" lon="-2.0986991376"><ele>252.48</ele><time>2013-12-11T11:50:17Z</time></trkpt><trkpt lat="51.8397574592" lon="-2.0988336671"><ele>253.93</ele><time>2013-12-11T11:50:31Z</time></trkpt><trkpt lat="51.8396517634" lon="-2.0989960246"><ele>254.41</ele><time>2013-12-11T11:50:44Z</time></trkpt><trkpt lat="51.8395513482" lon="-2.0991681889"><ele>255.85</ele><time>2013-12-11T11:50:59Z</time></trkpt><trkpt lat="51.8395232689" lon="-2.0992042311"><ele>256.33</ele><time>2013-12-11T11:51:02Z</time></trkpt><trkpt lat="51.8394041620" lon="-2.0993683487"><ele>257.29</ele><time>2013-12-11T11:51:18Z</time></trkpt><trkpt lat="51.8393135536" lon="-2.0994715299"><ele>258.73</ele><time>2013-12-11T11:51:31Z</time></trkpt><trkpt lat="51.8392074388" lon="-2.0995980129"><ele>260.65</ele><time>2013-12-11T11:51:46Z</time></trkpt><trkpt lat="51.8391513638" lon="-2.0996460412"><ele>260.65</ele><time>2013-12-11T11:51:52Z</time></trkpt><trkpt lat="51.8389968853" lon="-2.0997708477"><ele>262.10</ele><time>2013-12-11T11:52:08Z</time></trkpt><trkpt lat="51.8388636131" lon="-2.0998814888"><ele>263.06</ele><time>2013-12-11T11:52:24Z</time></trkpt><trkpt lat="51.8387477752" lon="-2.0999534056"><ele>263.54</ele><time>2013-12-11T11:52:41Z</time></trkpt><trkpt lat="51.8385981582" lon="-2.1000415832"><ele>265.46</ele><time>2013-12-11T11:52:59Z</time></trkpt><trkpt lat="51.8385266606" lon="-2.1000907850"><ele>265.94</ele><time>2013-12-11T11:53:12Z</time></trkpt><trkpt lat="51.8383896165" lon="-2.1001520567"><ele>267.38</ele><time>2013-12-11T11:53:29Z</time></trkpt><trkpt lat="51.8382696714" lon="-2.1001970675"><ele>268.35</ele><time>2013-12-11T11:53:45Z</time></trkpt><trkpt lat="51.8381291069" lon="-2.1002891846"><ele>269.31</ele><time>2013-12-11T11:53:58Z</time></trkpt><trkpt lat="51.8381143548" lon="-2.1003004164"><ele>270.27</ele><time>2013-12-11T11:54:00Z</time></trkpt><trkpt lat="51.8380098324" lon="-2.1003662143"><ele>270.27</ele><time>2013-12-11T11:54:18Z</time></trkpt><trkpt lat="51.8378826790" lon="-2.1004498657"><ele>272.19</ele><time>2013-12-11T11:54:35Z</time></trkpt><trkpt lat="51.8377892207" lon="-2.1005123947"><ele>271.71</ele><time>2013-12-11T11:54:51Z</time></trkpt><trkpt lat="51.8377501611" lon="-2.1005256381"><ele>273.63</ele><time>2013-12-11T11:54:59Z</time></trkpt><trkpt lat="51.8376318086" lon="-2.1006281488"><ele>273.63</ele><time>2013-12-11T11:55:15Z</time></trkpt><trkpt lat="51.8374746479" lon="-2.1007638518"><ele>274.11</ele><time>2013-12-11T11:55:32Z</time></trkpt><trkpt lat="51.8373370171" lon="-2.1008773427"><ele>275.07</ele><time>2013-12-11T11:55:50Z</time></trkpt><trkpt lat="51.8371282239" lon="-2.1010532789"><ele>276.04</ele><time>2013-12-11T11:56:09Z</time></trkpt><trkpt lat="51.8369827978" lon="-2.1011870541"><ele>276.04</ele><time>2013-12-11T11:56:26Z</time></trkpt><trkpt lat="51.8368475139" lon="-2.1013071667"><ele>277.48</ele><time>2013-12-11T11:56:43Z</time></trkpt><trkpt lat="51.8367076200" lon="-2.1014268603"><ele>278.44</ele><time>2013-12-11T11:57:01Z</time></trkpt><trkpt lat="51.8367082905" lon="-2.1014377568"><ele>277.48</ele><time>2013-12-11T11:57:28Z</time></trkpt><trkpt lat="51.8367082067" lon="-2.1014283691"><ele>278.44</ele><time>2013-12-11T11:57:47Z</time></trkpt><trkpt lat="51.8366978969" lon="-2.1014426183"><ele>277.96</ele><time>2013-12-11T11:58:16Z</time></trkpt><trkpt lat="51.8367040996" lon="-2.1014366671"><ele>277.96</ele><time>2013-12-11T11:58:43Z</time></trkpt><trkpt lat="51.8366378825" lon="-2.1014491562"><ele>278.92</ele><time>2013-12-11T11:58:59Z</time></trkpt><trkpt lat="51.8366025947" lon="-2.1015072428"><ele>278.44</ele><time>2013-12-11T11:59:16Z</time></trkpt><trkpt lat="51.8365835678" lon="-2.1015122719"><ele>278.44</ele><time>2013-12-11T11:59:31Z</time></trkpt><trkpt lat="51.8365764432" lon="-2.1015152056"><ele>278.92</ele><time>2013-12-11T11:59:32Z</time></trkpt><trkpt lat="51.8365377188" lon="-2.1015261021"><ele>279.40</ele><time>2013-12-11T11:59:36Z</time></trkpt><trkpt lat="51.8363198731" lon="-2.1015631501"><ele>280.84</ele><time>2013-12-11T11:59:54Z</time></trkpt><trkpt lat="51.8360896222" lon="-2.1016504895"><ele>283.25</ele><time>2013-12-11T12:00:12Z</time></trkpt><trkpt lat="51.8359474652" lon="-2.1017448697"><ele>284.69</ele><time>2013-12-11T12:00:25Z</time></trkpt><trkpt lat="51.8357182201" lon="-2.1019078977"><ele>286.61</ele><time>2013-12-11T12:00:42Z</time></trkpt><trkpt lat="51.8354929984" lon="-2.1020618733"><ele>288.05</ele><time>2013-12-11T12:00:59Z</time></trkpt><trkpt lat="51.8352940958" lon="-2.1022546571"><ele>288.05</ele><time>2013-12-11T12:01:17Z</time></trkpt><trkpt lat="51.8351327442" lon="-2.1023595985"><ele>288.53</ele><time>2013-12-11T12:01:33Z</time></trkpt><trkpt lat="51.8349010684" lon="-2.1024748497"><ele>289.97</ele><time>2013-12-11T12:01:52Z</time></trkpt><trkpt lat="51.8347436562" lon="-2.1025754325"><ele>289.97</ele><time>2013-12-11T12:02:09Z</time></trkpt><trkpt lat="51.8345690612" lon="-2.1027980559"><ele>290.94</ele><time>2013-12-11T12:02:28Z</time></trkpt><trkpt lat="51.8344670534" lon="-2.1028968785"><ele>289.97</ele><time>2013-12-11T12:02:42Z</time></trkpt><trkpt lat="51.8342640437" lon="-2.1029216889"><ele>291.42</ele><time>2013-12-11T12:03:02Z</time></trkpt><trkpt lat="51.8341406621" lon="-2.1031046659"><ele>291.42</ele><time>2013-12-11T12:03:20Z</time></trkpt><trkpt lat="51.8340642191" lon="-2.1032119542"><ele>289.01</ele><time>2013-12-11T12:03:27Z</time></trkpt><trkpt lat="51.8338524923" lon="-2.1034267824"><ele>289.97</ele><time>2013-12-11T12:03:46Z</time></trkpt><trkpt lat="51.8336861953" lon="-2.1036370005"><ele>290.94</ele><time>2013-12-11T12:04:08Z</time></trkpt><trkpt lat="51.8333753105" lon="-2.1038570255"><ele>289.49</ele><time>2013-12-11T12:04:30Z</time></trkpt><trkpt lat="51.8332121987" lon="-2.1040706802"><ele>289.49</ele><time>2013-12-11T12:04:49Z</time></trkpt><trkpt lat="51.8329516053" lon="-2.1043358836"><ele>289.49</ele><time>2013-12-11T12:05:14Z</time></trkpt><trkpt lat="51.8327351846" lon="-2.1045849938"><ele>289.97</ele><time>2013-12-11T12:05:34Z</time></trkpt><trkpt lat="51.8325278163" lon="-2.1047889255"><ele>289.49</ele><time>2013-12-11T12:05:53Z</time></trkpt><trkpt lat="51.8323258962" lon="-2.1049864870"><ele>289.97</ele><time>2013-12-11T12:06:10Z</time></trkpt><trkpt lat="51.8321264908" lon="-2.1052153129"><ele>289.49</ele><time>2013-12-11T12:06:30Z</time></trkpt><trkpt lat="51.8319564220" lon="-2.1054101083"><ele>289.97</ele><time>2013-12-11T12:06:48Z</time></trkpt><trkpt lat="51.8317990098" lon="-2.1056270320"><ele>289.49</ele><time>2013-12-11T12:07:04Z</time></trkpt><trkpt lat="51.8316705991" lon="-2.1058157086"><ele>290.94</ele><time>2013-12-11T12:07:20Z</time></trkpt><trkpt lat="51.8315052241" lon="-2.1060267650"><ele>289.97</ele><time>2013-12-11T12:07:39Z</time></trkpt><trkpt lat="51.8313864525" lon="-2.1061828360"><ele>290.46</ele><time>2013-12-11T12:07:52Z</time></trkpt><trkpt lat="51.8312417809" lon="-2.1063891985"><ele>289.49</ele><time>2013-12-11T12:08:11Z</time></trkpt><trkpt lat="51.8310564570" lon="-2.1066072956"><ele>289.49</ele><time>2013-12-11T12:08:28Z</time></trkpt><trkpt lat="51.8309082650" lon="-2.1067587566"><ele>289.97</ele><time>2013-12-11T12:08:43Z</time></trkpt><trkpt lat="51.8308743183" lon="-2.1067986544"><ele>289.97</ele><time>2013-12-11T12:08:47Z</time></trkpt><trkpt lat="51.8307982106" lon="-2.1069016680"><ele>289.97</ele><time>2013-12-11T12:08:57Z</time></trkpt><trkpt lat="51.8306459114" lon="-2.1071018279"><ele>289.01</ele><time>2013-12-11T12:09:15Z</time></trkpt><trkpt lat="51.8304913491" lon="-2.1072811168"><ele>288.53</ele><time>2013-12-11T12:09:34Z</time></trkpt><trkpt lat="51.8303362839" lon="-2.1074630041"><ele>288.53</ele><time>2013-12-11T12:09:51Z</time></trkpt><trkpt lat="51.8301543966" lon="-2.1076232661"><ele>288.53</ele><time>2013-12-11T12:10:11Z</time></trkpt><trkpt lat="51.8301080447" lon="-2.1076771617"><ele>288.53</ele><time>2013-12-11T12:10:31Z</time></trkpt><trkpt lat="51.8300984055" lon="-2.1076774970"><ele>288.53</ele><time>2013-12-11T12:10:34Z</time></trkpt><trkpt lat="51.8299259897" lon="-2.1076905727"><ele>287.57</ele><time>2013-12-11T12:10:52Z</time></trkpt><trkpt lat="51.8296935596" lon="-2.1078121942"><ele>287.09</ele><time>2013-12-11T12:11:10Z</time></trkpt><trkpt lat="51.8295325432" lon="-2.1078465600"><ele>286.13</ele><time>2013-12-11T12:11:28Z</time></trkpt><trkpt lat="51.8293129373" lon="-2.1079134475"><ele>285.17</ele><time>2013-12-11T12:11:46Z</time></trkpt><trkpt lat="51.8292256817" lon="-2.1079465561"><ele>285.65</ele><time>2013-12-11T12:11:53Z</time></trkpt><trkpt lat="51.8289361708" lon="-2.1081129368"><ele>285.17</ele><time>2013-12-11T12:12:15Z</time></trkpt><trkpt lat="51.8287921697" lon="-2.1081961691"><ele>284.21</ele><time>2013-12-11T12:12:30Z</time></trkpt><trkpt lat="51.8286450673" lon="-2.1082885377"><ele>284.69</ele><time>2013-12-11T12:12:46Z</time></trkpt><trkpt lat="51.8285133876" lon="-2.1083027031"><ele>283.73</ele><time>2013-12-11T12:13:03Z</time></trkpt><trkpt lat="51.8284836318" lon="-2.1082825866"><ele>283.25</ele><time>2013-12-11T12:13:20Z</time></trkpt><trkpt lat="51.8284603301" lon="-2.1083021164"><ele>283.25</ele><time>2013-12-11T12:13:35Z</time></trkpt><trkpt lat="51.8283416424" lon="-2.1084470395"><ele>283.25</ele><time>2013-12-11T12:13:49Z</time></trkpt><trkpt lat="51.8282304145" lon="-2.1084985882"><ele>282.77</ele><time>2013-12-11T12:14:01Z</time></trkpt><trkpt lat="51.8280451745" lon="-2.1086040325"><ele>282.77</ele><time>2013-12-11T12:14:17Z</time></trkpt><trkpt lat="51.8279284984" lon="-2.1086712554"><ele>282.28</ele><time>2013-12-11T12:14:31Z</time></trkpt><trkpt lat="51.8279262353" lon="-2.1086893603"><ele>282.28</ele><time>2013-12-11T12:14:32Z</time></trkpt><trkpt lat="51.8279181886" lon="-2.1087390650"><ele>282.28</ele><time>2013-12-11T12:14:34Z</time></trkpt><trkpt lat="51.8278780393" lon="-2.1088372171"><ele>281.80</ele><time>2013-12-11T12:14:38Z</time></trkpt><trkpt lat="51.8278123252" lon="-2.1089471877"><ele>282.28</ele><time>2013-12-11T12:14:46Z</time></trkpt><trkpt lat="51.8278895225" lon="-2.1091781091"><ele>282.28</ele><time>2013-12-11T12:15:00Z</time></trkpt><trkpt lat="51.8279386405" lon="-2.1093538776"><ele>282.28</ele><time>2013-12-11T12:15:13Z</time></trkpt><trkpt lat="51.8280201126" lon="-2.1095333342"><ele>281.80</ele><time>2013-12-11T12:15:29Z</time></trkpt><trkpt lat="51.8280655425" lon="-2.1095452365"><ele>281.80</ele><time>2013-12-11T12:15:45Z</time></trkpt><trkpt lat="51.8281416502" lon="-2.1095522773"><ele>282.28</ele><time>2013-12-11T12:15:58Z</time></trkpt><trkpt lat="51.8282533810" lon="-2.1096264571"><ele>282.77</ele><time>2013-12-11T12:16:08Z</time></trkpt><trkpt lat="51.8284296524" lon="-2.1096637566"><ele>282.77</ele><time>2013-12-11T12:16:26Z</time></trkpt><trkpt lat="51.8284874037" lon="-2.1096552070"><ele>283.25</ele><time>2013-12-11T12:16:31Z</time></trkpt><trkpt lat="51.8286848813" lon="-2.1097107790"><ele>283.73</ele><time>2013-12-11T12:16:46Z</time></trkpt><trkpt lat="51.8288434669" lon="-2.1097740624"><ele>284.21</ele><time>2013-12-11T12:17:03Z</time></trkpt><trkpt lat="51.8288754858" lon="-2.1097816061"><ele>284.21</ele><time>2013-12-11T12:17:24Z</time></trkpt></trkseg></trk></gpx>